Time;durP1;ratioP1;P1;durP2;ratioP2;P2;SDS_P1;SDS_P2;PMS_P1;PMS_P2;Temp;Humidity;BMP_temperature;BMP_pressure;BME280_temperature;BME280_humidity;BME280_pressure;Samples;Min_cycle;Max_cycle;Signal;HPM_P1;HPM_P2
2022/06/11 00:00:35;;;;;;;;;;;;;;;;;;5033574;28;20250;-62
2022/06/11 00:03:02;;;;;;;;;;;;;;;;;;5033625;28;19927;-62
2022/06/11 00:05:28;;;;;;;;;;;;;;;;;;5033646;28;20377;-62
2022/06/11 00:07:57;;;;;;;;;;;;;;;;;;5033791;28;20002;-62
2022/06/11 00:10:24;;;;;;;;;;;;;;;;;;5033279;28;20024;-62
2022/06/11 00:12:50;;;;;;;;;;;;;;;;;;5034067;28;19971;-62
2022/06/11 00:15:17;;;;;;;;;;;;;;;;;;5033584;28;19928;-62
2022/06/11 00:17:43;;;;;;;;;;;;;;;;;;5033430;28;19925;-62
2022/06/11 00:20:11;;;;;;;;;;;;;;;;;;5033340;28;19925;-62
2022/06/11 00:22:38;;;;;;;;;;;;;;;;;;5033540;28;20461;-62
2022/06/11 00:25:06;;;;;;;;;;;;;;;;;;5033617;28;20039;-62
2022/06/11 00:27:33;;;;;;;;;;;;;;;;;;5033564;28;20382;-62
2022/06/11 00:29:59;;;;;;;;;;;;;;;;;;5033290;28;20402;-62
2022/06/11 00:32:26;;;;;;;;;;;;;;;;;;5033148;28;19925;-62
2022/06/11 00:34:53;;;;;;;;;;;;;;;;;;5033439;28;20332;-62
2022/06/11 00:37:20;;;;;;;;;;;;;;;;;;5033380;28;19931;-62
2022/06/11 00:39:47;;;;;;;;;;;;;;;;;;5033452;28;19921;-62
2022/06/11 00:42:17;;;;;;;;;;;;;;;;;;5032999;28;19921;-62
2022/06/11 00:44:43;;;;;;;;;;;;;;;;;;5033161;28;19975;-62
2022/06/11 00:47:14;;;;;;;;;;;;;;;;;;5032889;28;20333;-62
2022/06/11 00:49:43;;;;;;;;;;;;;;;;;;5032872;28;20449;-61
2022/06/11 00:52:13;;;;;;;;;;;;;;;;;;5032858;28;19920;-62
2022/06/11 00:54:41;;;;;;;;;;;;;;;;;;5032957;28;19921;-62
2022/06/11 00:57:08;;;;;;;;;;;;;;;;;;5032727;28;19928;-62
2022/06/11 00:59:38;;;;;;;;;;;;;;;;;;5019413;28;19925;-62
2022/06/11 01:02:05;;;;;;;;;;;;;;;;;;5012849;28;19968;-62
2022/06/11 01:04:37;;;;;;;;;;;;;;;;;;5013285;28;20370;-62
2022/06/11 01:07:09;;;;;;;;;;;;;;;;;;5013202;28;20322;-62
2022/06/11 01:09:40;;;;;;;;;;;;;;;;;;5012917;28;19976;-62
2022/06/11 01:12:13;;;;;;;;;;;;;;;;;;5012835;28;19975;-61
2022/06/11 01:14:45;;;;;;;;;;;;;;;;;;5012742;28;19971;-61
2022/06/11 01:17:16;;;;;;;;;;;;;;;;;;5012877;28;19968;-62
2022/06/11 01:19:58;;;;;;;;;;;;;;;;;;5012476;28;20405;-62
2022/06/11 01:22:34;;;;;;;;;;;;;;;;;;5012554;28;20045;-62
2022/06/11 01:25:04;;;;;;;;;;;;;;;;;;5012671;28;19925;-62
2022/06/11 01:27:49;;;;;;;;;;;;;;;;;;5012924;28;19929;-62
2022/06/11 01:30:19;;;;;;;;;;;;;;;;;;5012388;28;19921;-61
2022/06/11 01:32:55;;;;;;;;;;;;;;;;;;5012547;28;19980;-62
2022/06/11 01:35:24;;;;;;;;;;;;;;;;;;5012483;28;19925;-62
2022/06/11 01:43:25;;;;;;;;;;;;;;;;;;4991954;28;19925;-60
2022/06/11 01:45:53;;;;;;;;;;;;;;;;;;4993218;28;19977;-59
2022/06/11 01:48:22;;;;;;;;;;;;;;;;;;4993117;28;20411;-59
2022/06/11 01:50:52;;;;;;;;;;;;;;;;;;4992975;28;19973;-58
2022/06/11 01:53:33;;;;;;;;;;;;;;;;;;4993269;28;20436;-60
2022/06/11 01:56:11;;;;;;;;;;;;;;;;;;4992435;28;19984;-60
2022/06/11 01:58:48;;;;;;;;;;;;;;;;;;4993567;28;20028;-60
2022/06/11 02:01:20;;;;;;;;;;;;;;;;;;4993213;28;20294;-58
2022/06/11 02:03:52;;;;;;;;;;;;;;;;;;4993230;28;20350;-60
2022/06/11 02:06:29;;;;;;;;;;;;;;;;;;4993501;28;20437;-60
2022/06/11 02:09:03;;;;;;;;;;;;;;;;;;4993401;28;19921;-59
2022/06/11 02:11:32;;;;;;;;;;;;;;;;;;4993037;28;20390;-60
2022/06/11 02:14:01;;;;;;;;;;;;;;;;;;4993232;28;19988;-59
2022/06/11 02:16:33;;;;;;;;;;;;;;;;;;4993085;28;19922;-56
2022/06/11 02:19:01;;;;;;;;;;;;;;;;;;4992928;28;20016;-59
2022/06/11 02:21:29;;;;;;;;;;;;;;;;;;4996421;28;19925;-58
2022/06/11 02:24:00;;;;;;;;;;;;;;;;;;4997005;28;19976;-59
2022/06/11 02:26:28;;;;;;;;;;;;;;;;;;4997455;28;20330;-58
2022/06/11 02:28:56;;;;;;;;;;;;;;;;;;4997022;28;19980;-58
2022/06/11 02:31:28;;;;;;;;;;;;;;;;;;4996512;28;19962;-57
2022/06/11 02:33:56;;;;;;;;;;;;;;;;;;4996820;28;19926;-55
2022/06/11 02:36:27;;;;;;;;;;;;;;;;;;4996935;28;20379;-58
2022/06/11 02:38:53;;;;;;;;;;;;;;;;;;4996486;28;19922;-60
2022/06/11 02:41:22;;;;;;;;;;;;;;;;;;4996464;28;19922;-60
2022/06/11 02:43:49;;;;;;;;;;;;;;;;;;4996535;28;19926;-60
2022/06/11 02:49:01;;;;;;;;;;;;;;;;;;4996400;28;19973;-59
2022/06/11 02:51:28;;;;;;;;;;;;;;;;;;4996120;28;20355;-59
2022/06/11 02:53:55;;;;;;;;;;;;;;;;;;4996273;28;19925;-59
2022/06/11 02:56:21;;;;;;;;;;;;;;;;;;4996566;28;19988;-58
2022/06/11 02:58:48;;;;;;;;;;;;;;;;;;4996185;28;19922;-57
2022/06/11 03:01:15;;;;;;;;;;;;;;;;;;4996151;28;19929;-59
2022/06/11 03:03:41;;;;;;;;;;;;;;;;;;4996252;28;19976;-59
2022/06/11 03:06:09;;;;;;;;;;;;;;;;;;4996200;28;19969;-58
2022/06/11 03:08:36;;;;;;;;;;;;;;;;;;4995779;28;19972;-58
2022/06/11 03:11:03;;;;;;;;;;;;;;;;;;4995974;28;19925;-59
2022/06/11 03:13:30;;;;;;;;;;;;;;;;;;4995767;28;19979;-59
2022/06/11 03:15:57;;;;;;;;;;;;;;;;;;4996280;28;20382;-58
2022/06/11 03:18:24;;;;;;;;;;;;;;;;;;4996114;28;19926;-59
2022/06/11 03:20:51;;;;;;;;;;;;;;;;;;4996064;28;19976;-57
2022/06/11 03:23:19;;;;;;;;;;;;;;;;;;4996165;28;19965;-58
2022/06/11 03:25:46;;;;;;;;;;;;;;;;;;4995808;28;19937;-58
2022/06/11 03:28:14;;;;;;;;;;;;;;;;;;4995837;28;19926;-59
2022/06/11 03:30:41;;;;;;;;;;;;;;;;;;4995445;28;19976;-58
2022/06/11 03:33:07;;;;;;;;;;;;;;;;;;4995643;28;19968;-59
2022/06/11 03:35:34;;;;;;;;;;;;;;;;;;4995754;28;19943;-58
2022/06/11 03:38:01;;;;;;;;;;;;;;;;;;4995651;28;20415;-59
2022/06/11 03:40:29;;;;;;;;;;;;;;;;;;4995097;28;19926;-59
2022/06/11 03:42:56;;;;;;;;;;;;;;;;;;4995877;28;19926;-59
2022/06/11 03:45:22;;;;;;;;;;;;;;;;;;4995520;28;20342;-59
2022/06/11 03:47:49;;;;;;;;;;;;;;;;;;4995630;28;19968;-59
2022/06/11 03:50:18;;;;;;;;;;;;;;;;;;4995053;28;19997;-59
2022/06/11 03:52:44;;;;;;;;;;;;;;;;;;4995277;28;19944;-60
2022/06/11 03:55:11;;;;;;;;;;;;;;;;;;4995504;28;19944;-59
2022/06/11 03:57:39;;;;;;;;;;;;;;;;;;4996023;28;19922;-58
2022/06/11 04:00:08;;;;;;;;;;;;;;;;;;4994775;28;19930;-58
2022/06/11 04:02:35;;;;;;;;;;;;;;;;;;4995279;28;19922;-57
2022/06/11 04:05:01;;;;;;;;;;;;;;;;;;4995393;28;19921;-60
2022/06/11 04:07:28;;;;;;;;;;;;;;;;;;4994824;28;19921;-60
2022/06/11 04:09:55;;;;;;;;;;;;;;;;;;4994855;28;20342;-60
2022/06/11 04:12:21;;;;;;;;;;;;;;;;;;4995120;28;19984;-59
2022/06/11 04:14:50;;;;;;;;;;;;;;;;;;4994481;28;19992;-58
2022/06/11 04:17:18;;;;;;;;;;;;;;;;;;4994481;28;19929;-60
2022/06/11 04:19:46;;;;;;;;;;;;;;;;;;4994617;28;20302;-59
2022/06/11 04:22:12;;;;;;;;;;;;;;;;;;4994650;28;19976;-60
2022/06/11 04:24:39;;;;;;;;;;;;;;;;;;4994809;28;20287;-59
2022/06/11 04:27:07;;;;;;;;;;;;;;;;;;4994572;28;19922;-60
2022/06/11 04:29:35;;;;;;;;;;;;;;;;;;4994060;28;19980;-60
2022/06/11 04:32:04;;;;;;;;;;;;;;;;;;4994251;28;19972;-60
2022/06/11 04:34:31;;;;;;;;;;;;;;;;;;4994395;28;19944;-60
2022/06/11 04:36:58;;;;;;;;;;;;;;;;;;4994856;28;20322;-57
2022/06/11 04:39:26;;;;;;;;;;;;;;;;;;4994263;28;19976;-59
2022/06/11 04:41:53;;;;;;;;;;;;;;;;;;4994604;28;19976;-59
2022/06/11 04:44:20;;;;;;;;;;;;;;;;;;4994151;28;19926;-60
2022/06/11 04:46:46;;;;;;;;;;;;;;;;;;4994560;28;19933;-59
2022/06/11 04:49:14;;;;;;;;;;;;;;;;;;4994229;28;20446;-58
2022/06/11 04:51:41;;;;;;;;;;;;;;;;;;4994172;28;19968;-58
2022/06/11 04:54:08;;;;;;;;;;;;;;;;;;4994079;28;20296;-59
2022/06/11 04:56:34;;;;;;;;;;;;;;;;;;4993925;28;19972;-59
2022/06/11 04:59:02;;;;;;;;;;;;;;;;;;4994015;28;19926;-59
2022/06/11 05:01:29;;;;;;;;;;;;;;;;;;4993958;28;20314;-59
2022/06/11 05:03:56;;;;;;;;;;;;;;;;;;4994165;28;20333;-58
2022/06/11 05:06:31;;;;;;;;;;;;;;;;;;4993929;28;19977;-58
2022/06/11 05:08:58;;;;;;;;;;;;;;;;;;4994268;28;19922;-58
2022/06/11 05:11:24;;;;;;;;;;;;;;;;;;4993628;28;19937;-59
2022/06/11 05:13:51;;;;;;;;;;;;;;;;;;4993962;28;19921;-59
2022/06/11 05:16:19;;;;;;;;;;;;;;;;;;4993776;28;19925;-59
2022/06/11 05:18:45;;;;;;;;;;;;;;;;;;4993999;28;19944;-59
2022/06/11 05:21:12;;;;;;;;;;;;;;;;;;4993829;28;19928;-59
2022/06/11 05:23:40;;;;;;;;;;;;;;;;;;4994101;28;19922;-57
2022/06/11 05:26:06;;;;;;;;;;;;;;;;;;4993591;28;19926;-59
2022/06/11 05:28:34;;;;;;;;;;;;;;;;;;4993453;28;19921;-58
2022/06/11 05:31:01;;;;;;;;;;;;;;;;;;4993504;28;20343;-59
2022/06/11 05:33:28;;;;;;;;;;;;;;;;;;4993633;28;20306;-61
2022/06/11 05:35:55;;;;;;;;;;;;;;;;;;4993490;28;20389;-59
2022/06/11 05:38:22;;;;;;;;;;;;;;;;;;4993709;28;19925;-59
2022/06/11 05:40:52;;;;;;;;;;;;;;;;;;4993186;28;19928;-59
2022/06/11 05:43:19;;;;;;;;;;;;;;;;;;4993370;28;19925;-59
2022/06/11 05:45:47;;;;;;;;;;;;;;;;;;4993294;28;19922;-59
2022/06/11 05:48:15;;;;;;;;;;;;;;;;;;4993362;28;19928;-59
2022/06/11 05:50:43;;;;;;;;;;;;;;;;;;4993054;28;19928;-59
2022/06/11 05:53:13;;;;;;;;;;;;;;;;;;4993392;28;20414;-58
2022/06/11 05:55:40;;;;;;;;;;;;;;;;;;4995194;28;19928;-56
2022/06/11 05:58:09;;;;;;;;;;;;;;;;;;4997362;28;19926;-59
2022/06/11 06:00:36;;;;;;;;;;;;;;;;;;4997125;28;19922;-59
2022/06/11 06:03:03;;;;;;;;;;;;;;;;;;4997375;28;19922;-59
2022/06/11 06:05:30;;;;;;;;;;;;;;;;;;4997108;28;20298;-60
2022/06/11 06:07:57;;;;;;;;;;;;;;;;;;4997407;28;19972;-59
2022/06/11 06:10:24;;;;;;;;;;;;;;;;;;4996906;28;19922;-58
2022/06/11 06:12:51;;;;;;;;;;;;;;;;;;4996991;28;19929;-58
2022/06/11 06:15:20;;;;;;;;;;;;;;;;;;4996943;28;19926;-58
2022/06/11 06:17:48;;;;;;;;;;;;;;;;;;4997090;28;19925;-58
2022/06/11 06:20:16;;;;;;;;;;;;;;;;;;4997222;28;19922;-59
2022/06/11 06:22:43;;;;;;;;;;;;;;;;;;4997050;28;19929;-58
2022/06/11 06:25:10;;;;;;;;;;;;;;;;;;4997197;28;20350;-59
2022/06/11 06:27:36;;;;;;;;;;;;;;;;;;4997192;28;19928;-59
2022/06/11 06:30:03;;;;;;;;;;;;;;;;;;4996782;28;20391;-59
2022/06/11 06:32:31;;;;;;;;;;;;;;;;;;4996866;28;19957;-58
2022/06/11 06:34:58;;;;;;;;;;;;;;;;;;4996932;28;19926;-60
2022/06/11 06:37:24;;;;;;;;;;;;;;;;;;4996633;28;19937;-59
2022/06/11 06:39:51;;;;;;;;;;;;;;;;;;4996371;28;20409;-58
2022/06/11 06:42:17;;;;;;;;;;;;;;;;;;4996096;28;19944;-58
2022/06/11 06:44:44;;;;;;;;;;;;;;;;;;4997128;28;19984;-59
2022/06/11 06:47:11;;;;;;;;;;;;;;;;;;4996573;28;19968;-59
2022/06/11 06:49:39;;;;;;;;;;;;;;;;;;4996643;28;19925;-59
2022/06/11 06:52:05;;;;;;;;;;;;;;;;;;4996437;28;19925;-59
2022/06/11 06:54:32;;;;;;;;;;;;;;;;;;4996574;28;19949;-59
2022/06/11 06:56:58;;;;;;;;;;;;;;;;;;4996858;28;19969;-59
2022/06/11 06:59:25;;;;;;;;;;;;;;;;;;4995864;28;19921;-59
2022/06/11 07:01:52;;;;;;;;;;;;;;;;;;4996389;28;19984;-59
2022/06/11 07:04:18;;;;;;;;;;;;;;;;;;4996394;28;19921;-60
2022/06/11 07:06:46;;;;;;;;;;;;;;;;;;4995822;28;19921;-58
2022/06/11 07:09:13;;;;;;;;;;;;;;;;;;4996038;28;19968;-60
2022/06/11 07:11:39;;;;;;;;;;;;;;;;;;4996017;28;19928;-60
2022/06/11 07:14:06;;;;;;;;;;;;;;;;;;4996523;28;20028;-60
2022/06/11 07:16:35;;;;;;;;;;;;;;;;;;4996002;28;20382;-59
2022/06/11 07:19:03;;;;;;;;;;;;;;;;;;4995837;28;19967;-59
2022/06/11 07:21:30;;;;;;;;;;;;;;;;;;4995695;28;19922;-60
2022/06/11 07:23:59;;;;;;;;;;;;;;;;;;4995851;28;20306;-59
2022/06/11 07:26:28;;;;;;;;;;;;;;;;;;4996234;28;19961;-59
2022/06/11 07:28:58;;;;;;;;;;;;;;;;;;4995622;28;19921;-57
2022/06/11 07:31:25;;;;;;;;;;;;;;;;;;4996174;28;19925;-58
2022/06/11 07:33:51;;;;;;;;;;;;;;;;;;4996241;28;19921;-60
2022/06/11 07:36:18;;;;;;;;;;;;;;;;;;4996153;28;19930;-59
2022/06/11 07:38:50;;;;;;;;;;;;;;;;;;4997162;28;19928;-63
2022/06/11 07:41:18;;;;;;;;;;;;;;;;;;4995705;28;19921;-59
2022/06/11 07:43:45;;;;;;;;;;;;;;;;;;4995957;28;19921;-58
2022/06/11 07:46:12;;;;;;;;;;;;;;;;;;4995612;28;19929;-59
2022/06/11 07:48:38;;;;;;;;;;;;;;;;;;4995916;28;19925;-60
2022/06/11 07:51:05;;;;;;;;;;;;;;;;;;5028797;22;19975;-78
2022/06/11 07:53:32;;;;;;;;;;;;;;;;;;5015665;28;20000;-77
2022/06/11 07:55:58;;;;;;;;;;;;;;;;;;5015470;28;20348;-77
2022/06/11 07:58:27;;;;;;;;;;;;;;;;;;5015666;28;20387;-78
2022/06/11 08:00:54;;;;;;;;;;;;;;;;;;5015600;28;20008;-78
2022/06/11 08:03:20;;;;;;;;;;;;;;;;;;5016034;28;20406;-78
2022/06/11 08:05:47;;;;;;;;;;;;;;;;;;5017500;28;19949;-78
2022/06/11 08:08:14;;;;;;;;;;;;;;;;;;5017700;28;20265;-78
2022/06/11 08:10:42;;;;;;;;;;;;;;;;;;5021498;28;20028;-79
2022/06/11 08:13:12;;;;;;;;;;;;;;;;;;5020532;28;19928;-78
2022/06/11 08:15:41;;;;;;;;;;;;;;;;;;5020510;28;19921;-78
2022/06/11 08:18:07;;;;;;;;;;;;;;;;;;5024868;28;19928;-80
2022/06/11 08:20:35;;;;;;;;;;;;;;;;;;5020169;28;20017;-76
2022/06/11 08:23:02;;;;;;;;;;;;;;;;;;5020143;28;19921;-79
2022/06/11 08:25:29;;;;;;;;;;;;;;;;;;5019107;28;19921;-79
2022/06/11 08:27:56;;;;;;;;;;;;;;;;;;5019395;28;20020;-79
2022/06/11 08:30:23;;;;;;;;;;;;;;;;;;5020916;28;19928;-79
2022/06/11 08:32:51;;;;;;;;;;;;;;;;;;5019572;28;20008;-78
2022/06/11 08:35:19;;;;;;;;;;;;;;;;;;5018034;28;19921;-78
2022/06/11 08:37:46;;;;;;;;;;;;;;;;;;5018493;28;20502;-78
2022/06/11 08:40:15;;;;;;;;;;;;;;;;;;5017250;28;19976;-78
2022/06/11 08:42:42;;;;;;;;;;;;;;;;;;5018299;28;20468;-78
2022/06/11 08:45:14;;;;;;;;;;;;;;;;;;5019041;28;19931;-78
2022/06/11 08:47:43;;;;;;;;;;;;;;;;;;5022321;28;20305;-78
2022/06/11 08:50:13;;;;;;;;;;;;;;;;;;5024676;28;19921;-79
2022/06/11 08:52:40;;;;;;;;;;;;;;;;;;5024340;28;19921;-79
2022/06/11 08:55:06;;;;;;;;;;;;;;;;;;5020363;28;19948;-79
2022/06/11 08:57:39;;;;;;;;;;;;;;;;;;5019818;28;19928;-78
2022/06/11 09:00:07;;;;;;;;;;;;;;;;;;4999095;28;20008;-77
2022/06/11 09:02:51;;;;;;;;;;;;;;;;;;5001367;28;19928;-78
2022/06/11 09:05:27;;;;;;;;;;;;;;;;;;4999888;28;19968;-77
2022/06/11 09:08:00;;;;;;;;;;;;;;;;;;5001671;28;20439;-77
2022/06/11 09:10:34;;;;;;;;;;;;;;;;;;5000162;28;20012;-77
2022/06/11 09:13:10;;;;;;;;;;;;;;;;;;4996951;28;19973;-78
2022/06/11 09:15:44;;;;;;;;;;;;;;;;;;4996765;28;20005;-77
2022/06/11 09:18:23;;;;;;;;;;;;;;;;;;4997291;28;20012;-79
2022/06/11 09:20:57;;;;;;;;;;;;;;;;;;4995414;28;19921;-77
2022/06/11 09:23:44;;;;;;;;;;;;;;;;;;4997832;28;19922;-77
2022/06/11 09:26:16;;;;;;;;;;;;;;;;;;4992388;28;20009;-77
2022/06/11 09:28:44;;;;;;;;;;;;;;;;;;4996613;28;19926;-77
2022/06/11 09:31:12;;;;;;;;;;;;;;;;;;4995519;28;19921;-78
2022/06/11 09:33:40;;;;;;;;;;;;;;;;;;4995139;28;20412;-77
2022/06/11 09:36:12;;;;;;;;;;;;;;;;;;4994512;28;19925;-78
2022/06/11 09:38:42;;;;;;;;;;;;;;;;;;4995328;28;20016;-78
2022/06/11 09:41:13;;;;;;;;;;;;;;;;;;4994423;28;19961;-78
2022/06/11 09:43:42;;;;;;;;;;;;;;;;;;4995667;28;20008;-78
2022/06/11 09:46:14;;;;;;;;;;;;;;;;;;4995346;28;20000;-78
2022/06/11 09:48:47;;;;;;;;;;;;;;;;;;4999870;28;19922;-77
2022/06/11 09:51:24;;;;;;;;;;;;;;;;;;4996560;28;20329;-78
2022/06/11 09:53:57;;;;;;;;;;;;;;;;;;4997829;28;19922;-77
2022/06/11 09:56:28;;;;;;;;;;;;;;;;;;4998455;28;19921;-77
2022/06/11 09:59:03;;;;;;;;;;;;;;;;;;5005289;28;19922;-77
2022/06/11 10:01:32;;;;;;;;;;;;;;;;;;4999933;28;19921;-77
2022/06/11 10:04:05;;;;;;;;;;;;;;;;;;4998209;28;20594;-78
2022/06/11 10:06:36;;;;;;;;;;;;;;;;;;4996242;28;19921;-78
2022/06/11 10:09:04;;;;;;;;;;;;;;;;;;4998359;28;19957;-77
2022/06/11 10:11:36;;;;;;;;;;;;;;;;;;4998150;28;19922;-78
2022/06/11 10:16:46;;;;;;;;;;;;;;;;;;4996050;28;19928;-77
2022/06/11 10:19:19;;;;;;;;;;;;;;;;;;4997378;28;19961;-78
2022/06/11 10:21:51;;;;;;;;;;;;;;;;;;4995160;28;20375;-78
2022/06/11 10:24:18;;;;;;;;;;;;;;;;;;4994999;28;19925;-78
2022/06/11 10:26:47;;;;;;;;;;;;;;;;;;4995034;28;19921;-78
2022/06/11 10:29:15;;;;;;;;;;;;;;;;;;4994632;28;19972;-78
2022/06/11 10:31:45;;;;;;;;;;;;;;;;;;4994988;28;19922;-78
2022/06/11 10:34:14;;;;;;;;;;;;;;;;;;4994180;28;20354;-78
2022/06/11 10:36:44;;;;;;;;;;;;;;;;;;4994428;28;19937;-78
2022/06/11 10:39:13;;;;;;;;;;;;;;;;;;4994033;28;19980;-78
2022/06/11 10:41:42;;;;;;;;;;;;;;;;;;4996716;28;19965;-78
2022/06/11 10:44:24;;;;;;;;;;;;;;;;;;4998243;28;19975;-78
2022/06/11 10:46:52;;;;;;;;;;;;;;;;;;4997809;28;20037;-77
2022/06/11 10:49:21;;;;;;;;;;;;;;;;;;4996711;28;19921;-77
2022/06/11 10:51:53;;;;;;;;;;;;;;;;;;4997613;28;20008;-78
2022/06/11 10:54:23;;;;;;;;;;;;;;;;;;4997577;28;19922;-78
2022/06/11 10:56:51;;;;;;;;;;;;;;;;;;4997221;28;20411;-77
2022/06/11 10:59:20;;;;;;;;;;;;;;;;;;5007684;28;20329;-78
2022/06/11 11:01:48;;;;;;;;;;;;;;;;;;5017308;28;19936;-77
2022/06/11 11:04:30;;;;;;;;;;;;;;;;;;5017721;28;19953;-79
2022/06/11 11:07:16;;;;;;;;;;;;;;;;;;5018933;28;19922;-79
2022/06/11 11:09:45;;;;;;;;;;;;;;;;;;5017354;28;19921;-77
2022/06/11 11:12:23;;;;;;;;;;;;;;;;;;5017588;28;19944;-78
2022/06/11 11:14:58;;;;;;;;;;;;;;;;;;5018624;28;19972;-79
2022/06/11 11:17:27;;;;;;;;;;;;;;;;;;5017569;28;19922;-78
2022/06/11 11:22:35;;;;;;;;;;;;;;;;;;5016949;28;19921;-77
2022/06/11 11:25:05;;;;;;;;;;;;;;;;;;5017510;28;19926;-78
2022/06/11 11:27:33;;;;;;;;;;;;;;;;;;5016699;28;19929;-78
2022/06/11 11:30:01;;;;;;;;;;;;;;;;;;5016061;28;19964;-78
2022/06/11 11:32:29;;;;;;;;;;;;;;;;;;5016843;28;20148;-79
2022/06/11 11:34:55;;;;;;;;;;;;;;;;;;5017169;28;19999;-78
2022/06/11 11:37:23;;;;;;;;;;;;;;;;;;5017106;28;20013;-79
2022/06/11 11:39:51;;;;;;;;;;;;;;;;;;5016766;28;19957;-77
2022/06/11 11:42:20;;;;;;;;;;;;;;;;;;5017568;28;19926;-78
2022/06/11 11:44:49;;;;;;;;;;;;;;;;;;5017233;28;19929;-77
2022/06/11 11:47:18;;;;;;;;;;;;;;;;;;5016645;28;20462;-78
2022/06/11 11:49:50;;;;;;;;;;;;;;;;;;5016881;28;19985;-78
2022/06/11 11:52:19;;;;;;;;;;;;;;;;;;5016083;28;20024;-77
2022/06/11 11:54:50;;;;;;;;;;;;;;;;;;5017233;28;20288;-78
2022/06/11 11:57:16;;;;;;;;;;;;;;;;;;5016865;28;19967;-77
2022/06/11 11:59:47;;;;;;;;;;;;;;;;;;5003040;28;19977;-78
2022/06/11 12:02:15;;;;;;;;;;;;;;;;;;4998094;28;20364;-79
2022/06/11 12:04:49;;;;;;;;;;;;;;;;;;4996854;28;19969;-77
2022/06/11 12:07:16;;;;;;;;;;;;;;;;;;5000575;28;19977;-78
2022/06/11 12:09:49;;;;;;;;;;;;;;;;;;4999890;28;19922;-78
2022/06/11 12:12:19;;;;;;;;;;;;;;;;;;4998503;28;19926;-78
2022/06/11 12:14:50;;;;;;;;;;;;;;;;;;4998086;28;19922;-78
2022/06/11 12:17:19;;;;;;;;;;;;;;;;;;4997803;28;19926;-78
2022/06/11 12:19:47;;;;;;;;;;;;;;;;;;4998023;28;20300;-78
2022/06/11 12:22:22;;;;;;;;;;;;;;;;;;4997226;28;19922;-78
2022/06/11 12:24:50;;;;;;;;;;;;;;;;;;4997034;28;19921;-78
2022/06/11 12:27:18;;;;;;;;;;;;;;;;;;4996574;28;19982;-78
2022/06/11 12:29:48;;;;;;;;;;;;;;;;;;4996204;28;19953;-78
2022/06/11 12:32:17;;;;;;;;;;;;;;;;;;4996696;28;19976;-78
2022/06/11 12:34:44;;;;;;;;;;;;;;;;;;4996421;28;19999;-78
2022/06/11 12:37:16;;;;;;;;;;;;;;;;;;4997542;28;20012;-78
2022/06/11 12:39:47;;;;;;;;;;;;;;;;;;4995726;28;20384;-78
2022/06/11 12:42:18;;;;;;;;;;;;;;;;;;4995814;28;20005;-77
2022/06/11 12:44:50;;;;;;;;;;;;;;;;;;4998488;28;20299;-77
2022/06/11 12:47:25;;;;;;;;;;;;;;;;;;5000126;28;20012;-77
2022/06/11 12:49:57;;;;;;;;;;;;;;;;;;5002398;28;19921;-78
2022/06/11 12:52:25;;;;;;;;;;;;;;;;;;5003279;28;19991;-77
2022/06/11 12:55:01;;;;;;;;;;;;;;;;;;5010098;28;19929;-78
2022/06/11 12:57:36;;;;;;;;;;;;;;;;;;5010258;28;19921;-78
2022/06/11 13:00:11;;;;;;;;;;;;;;;;;;5009856;28;19929;-78
2022/06/11 13:02:48;;;;;;;;;;;;;;;;;;5007600;28;19928;-76
2022/06/11 13:05:45;;;;;;;;;;;;;;;;;;5009757;28;19933;-77
2022/06/11 13:08:21;;;;;;;;;;;;;;;;;;5012628;28;19964;-75
2022/06/11 13:10:51;;;;;;;;;;;;;;;;;;5010667;28;19921;-76
2022/06/11 13:13:36;;;;;;;;;;;;;;;;;;5011203;28;19922;-77
2022/06/11 13:16:06;;;;;;;;;;;;;;;;;;5005028;28;19929;-77
2022/06/11 13:18:50;;;;;;;;;;;;;;;;;;5004182;28;20384;-77
2022/06/11 13:21:20;;;;;;;;;;;;;;;;;;5002988;28;20011;-78
2022/06/11 13:23:50;;;;;;;;;;;;;;;;;;5002667;28;20377;-77
2022/06/11 13:26:20;;;;;;;;;;;;;;;;;;4998864;28;20012;-77
2022/06/11 13:28:56;;;;;;;;;;;;;;;;;;4997154;28;20411;-77
2022/06/11 13:31:26;;;;;;;;;;;;;;;;;;4996830;28;19984;-78
2022/06/11 13:34:03;;;;;;;;;;;;;;;;;;4997403;28;19928;-77
2022/06/11 13:36:38;;;;;;;;;;;;;;;;;;4997002;28;19929;-77
2022/06/11 13:39:14;;;;;;;;;;;;;;;;;;4996644;28;19961;-77
2022/06/11 13:41:45;;;;;;;;;;;;;;;;;;4995761;28;20352;-76
2022/06/11 13:44:20;;;;;;;;;;;;;;;;;;4995044;28;19980;-76
2022/06/11 13:46:52;;;;;;;;;;;;;;;;;;4995516;28;19985;-76
2022/06/11 13:49:25;;;;;;;;;;;;;;;;;;4993733;28;20388;-76
2022/06/11 13:51:57;;;;;;;;;;;;;;;;;;4994506;28;19961;-77
2022/06/11 13:57:17;;;;;;;;;;;;;;;;;;4994447;28;19983;-77
2022/06/11 13:59:55;;;;;;;;;;;;;;;;;;4993680;28;20558;-77
2022/06/11 14:02:40;;;;;;;;;;;;;;;;;;4993827;28;19969;-77
2022/06/11 14:05:08;;;;;;;;;;;;;;;;;;4994653;28;19976;-81
2022/06/11 14:07:37;;;;;;;;;;;;;;;;;;4993824;28;19952;-77
2022/06/11 14:10:26;;;;;;;;;;;;;;;;;;4995463;28;19929;-76
2022/06/11 14:12:54;;;;;;;;;;;;;;;;;;4995964;28;19994;-77
2022/06/11 14:15:26;;;;;;;;;;;;;;;;;;4993874;28;19972;-77
2022/06/11 14:17:54;;;;;;;;;;;;;;;;;;4997916;28;20399;-78
2022/06/11 14:20:23;;;;;;;;;;;;;;;;;;4997659;28;19934;-78
2022/06/11 14:22:52;;;;;;;;;;;;;;;;;;4997804;28;20008;-78
2022/06/11 14:25:34;;;;;;;;;;;;;;;;;;4997083;28;20405;-77
2022/06/11 14:28:15;;;;;;;;;;;;;;;;;;4997091;28;20392;-77
2022/06/11 14:31:05;;;;;;;;;;;;;;;;;;4996220;28;20442;-77
2022/06/11 14:33:32;;;;;;;;;;;;;;;;;;4997436;28;20327;-77
2022/06/11 14:36:00;;;;;;;;;;;;;;;;;;4997277;28;19976;-77
2022/06/11 14:38:44;;;;;;;;;;;;;;;;;;4997735;28;19922;-77
2022/06/11 14:43:57;;;;;;;;;;;;;;;;;;5055854;28;19920;-83
2022/06/11 14:46:43;;;;;;;;;;;;;;;;;;5062248;28;19921;-83
2022/06/11 14:49:12;;;;;;;;;;;;;;;;;;5061297;28;19983;-84
2022/06/11 14:51:39;;;;;;;;;;;;;;;;;;5061682;28;19921;-82
2022/06/11 14:54:13;;;;;;;;;;;;;;;;;;5061079;28;19924;-82
2022/06/11 14:57:00;;;;;;;;;;;;;;;;;;5063079;28;20295;-83
2022/06/11 14:59:39;;;;;;;;;;;;;;;;;;5065239;28;19925;-80
2022/06/11 15:02:21;;;;;;;;;;;;;;;;;;5075358;28;19921;-80
2022/06/11 15:05:02;;;;;;;;;;;;;;;;;;5075963;28;19925;-82
2022/06/11 15:07:43;;;;;;;;;;;;;;;;;;5067610;28;19920;-83
2022/06/11 15:10:16;;;;;;;;;;;;;;;;;;5062133;28;19948;-83
2022/06/11 15:12:53;;;;;;;;;;;;;;;;;;5062154;28;19921;-84
2022/06/11 15:15:41;;;;;;;;;;;;;;;;;;5061227;28;19999;-84
2022/06/11 15:18:09;;;;;;;;;;;;;;;;;;5061308;28;19975;-84
2022/06/11 15:20:38;;;;;;;;;;;;;;;;;;5061432;28;20349;-83
2022/06/11 15:23:06;;;;;;;;;;;;;;;;;;5062297;28;19921;-84
2022/06/11 15:25:34;;;;;;;;;;;;;;;;;;5061338;28;20011;-85
2022/06/11 15:28:06;;;;;;;;;;;;;;;;;;5064845;28;19921;-84
2022/06/11 15:30:33;;;;;;;;;;;;;;;;;;5066286;28;19927;-84
2022/06/11 15:33:09;;;;;;;;;;;;;;;;;;5066874;28;20429;-82
2022/06/11 15:35:36;;;;;;;;;;;;;;;;;;5068082;28;19921;-84
2022/06/11 15:38:04;;;;;;;;;;;;;;;;;;5068225;28;19976;-83
2022/06/11 15:40:32;;;;;;;;;;;;;;;;;;5066995;28;19921;-84
2022/06/11 15:43:03;;;;;;;;;;;;;;;;;;5065142;28;20362;-82
2022/06/11 15:45:32;;;;;;;;;;;;;;;;;;5068371;28;19921;-82
2022/06/11 15:48:00;;;;;;;;;;;;;;;;;;5067318;28;20047;-82
2022/06/11 15:50:28;;;;;;;;;;;;;;;;;;5065295;28;19921;-83
2022/06/11 15:53:00;;;;;;;;;;;;;;;;;;5061978;28;19921;-83
2022/06/11 15:55:32;;;;;;;;;;;;;;;;;;5060029;28;19932;-83
2022/06/11 15:58:00;;;;;;;;;;;;;;;;;;5059457;28;19956;-82
2022/06/11 16:00:34;;;;;;;;;;;;;;;;;;5019030;28;20357;-82
2022/06/11 16:03:03;;;;;;;;;;;;;;;;;;5020873;28;20016;-83
2022/06/11 16:05:31;;;;;;;;;;;;;;;;;;5020994;28;19922;-83
2022/06/11 16:07:58;;;;;;;;;;;;;;;;;;5020560;28;19976;-83
2022/06/11 16:10:26;;;;;;;;;;;;;;;;;;5020092;28;19968;-82
2022/06/11 16:12:53;;;;;;;;;;;;;;;;;;5017735;28;19972;-79
2022/06/11 16:15:21;;;;;;;;;;;;;;;;;;5017306;28;19975;-79
2022/06/11 16:17:49;;;;;;;;;;;;;;;;;;5016109;28;19973;-78
2022/06/11 16:20:27;;;;;;;;;;;;;;;;;;5016424;28;20024;-78
2022/06/11 16:22:55;;;;;;;;;;;;;;;;;;5016047;28;19972;-78
2022/06/11 16:25:23;;;;;;;;;;;;;;;;;;5016453;28;20549;-79
2022/06/11 16:27:50;;;;;;;;;;;;;;;;;;5016622;28;19968;-79
2022/06/11 16:30:19;;;;;;;;;;;;;;;;;;5015572;28;20356;-79
2022/06/11 16:32:45;;;;;;;;;;;;;;;;;;5015551;28;20303;-79
2022/06/11 16:35:17;;;;;;;;;;;;;;;;;;5015637;28;19972;-78
2022/06/11 16:37:44;;;;;;;;;;;;;;;;;;5016050;28;19921;-79
2022/06/11 16:40:30;;;;;;;;;;;;;;;;;;5014553;28;20004;-79
2022/06/11 16:42:56;;;;;;;;;;;;;;;;;;5015546;28;20016;-79
2022/06/11 16:45:24;;;;;;;;;;;;;;;;;;5015682;28;20368;-79
2022/06/11 16:47:54;;;;;;;;;;;;;;;;;;5015521;28;19994;-78
2022/06/11 16:56:10;;;;;;;;;;;;;;;;;;5016724;28;19967;-77
2022/06/11 16:58:42;;;;;;;;;;;;;;;;;;5018309;28;19921;-77
2022/06/11 17:01:11;;;;;;;;;;;;;;;;;;5018306;28;19968;-78
2022/06/11 17:03:40;;;;;;;;;;;;;;;;;;5015112;28;19921;-77
2022/06/11 17:06:19;;;;;;;;;;;;;;;;;;5015710;28;19932;-79
2022/06/11 17:08:46;;;;;;;;;;;;;;;;;;5022059;28;19961;-78
2022/06/11 17:11:14;;;;;;;;;;;;;;;;;;5017361;28;19971;-77
2022/06/11 17:13:46;;;;;;;;;;;;;;;;;;5021336;28;19956;-78
2022/06/11 17:16:18;;;;;;;;;;;;;;;;;;5018915;28;19921;-78
2022/06/11 17:18:52;;;;;;;;;;;;;;;;;;5018353;28;20008;-78
2022/06/11 17:21:21;;;;;;;;;;;;;;;;;;5017290;28;19925;-80
2022/06/11 17:23:54;;;;;;;;;;;;;;;;;;5017618;28;19997;-79
2022/06/11 17:26:22;;;;;;;;;;;;;;;;;;5018347;28;19968;-80
2022/06/11 17:28:49;;;;;;;;;;;;;;;;;;5017611;28;19998;-80